createdAt,value
2023-02-11T00:00:07.920Z,82.51
2023-02-11T00:00:40.587Z,82.61
2023-02-11T00:01:13.248Z,82.51
2023-02-11T00:01:45.916Z,82.61
2023-02-11T00:02:18.681Z,82.61
2023-02-11T00:02:51.344Z,82.51
2023-02-11T00:03:24.151Z,82.61
2023-02-11T00:03:56.820Z,82.71
2023-02-11T00:04:29.527Z,82.71
2023-02-11T00:05:02.227Z,82.71
2023-02-11T00:05:34.884Z,82.61
2023-02-11T00:06:07.559Z,82.61
2023-02-11T00:06:40.257Z,82.82
2023-02-11T00:07:12.913Z,82.71
2023-02-11T00:07:45.581Z,82.61
2023-02-11T00:08:18.250Z,82.61
2023-02-11T00:08:50.924Z,82.40
2023-02-11T00:09:23.597Z,82.40
2023-02-11T00:09:56.295Z,82.51
2023-02-11T00:10:28.952Z,82.61
2023-02-11T00:11:01.622Z,82.61
2023-02-11T00:11:34.284Z,82.51
2023-02-11T00:12:06.957Z,82.61
2023-02-11T00:12:39.832Z,82.71
2023-02-11T00:13:12.504Z,82.71
2023-02-11T00:13:45.182Z,82.82
2023-02-11T00:14:17.845Z,82.82
2023-02-11T00:14:50.551Z,82.82
2023-02-11T00:15:23.221Z,82.82
2023-02-11T00:15:55.897Z,82.82
2023-02-11T00:16:28.655Z,82.82
2023-02-11T00:17:01.339Z,82.61
2023-02-11T00:17:34.020Z,82.61
2023-02-11T00:18:06.677Z,82.61
2023-02-11T00:18:39.351Z,82.71
2023-02-11T00:19:12.032Z,82.82
2023-02-11T00:19:44.712Z,82.82
2023-02-11T00:20:17.374Z,82.82
2023-02-11T00:20:50.057Z,82.92
2023-02-11T00:21:22.740Z,82.82
2023-02-11T00:21:55.428Z,82.92
2023-02-11T00:22:28.101Z,83.03
2023-02-11T00:23:00.785Z,83.03
2023-02-11T00:23:33.452Z,83.13
2023-02-11T00:24:06.125Z,83.13
2023-02-11T00:24:38.803Z,82.92
2023-02-11T00:25:11.530Z,82.92
2023-02-11T00:25:44.187Z,83.03
2023-02-11T00:26:16.842Z,83.13
2023-02-11T00:26:49.510Z,83.13
2023-02-11T00:27:22.186Z,83.03
2023-02-11T00:27:54.882Z,82.92
2023-02-11T00:28:27.663Z,82.92
2023-02-11T00:29:00.313Z,82.92
2023-02-11T00:29:32.980Z,82.92
2023-02-11T00:30:05.668Z,83.03
2023-02-11T00:30:38.514Z,83.03
2023-02-11T00:31:11.363Z,83.13
2023-02-11T00:31:44.316Z,83.23
2023-02-11T00:32:17.021Z,83.13
2023-02-11T00:32:49.706Z,83.13
2023-02-11T00:33:22.360Z,83.13
2023-02-11T00:33:55.043Z,83.13
2023-02-11T00:34:27.707Z,83.13
2023-02-11T00:35:00.410Z,83.23
2023-02-11T00:35:33.070Z,83.34
2023-02-11T00:36:05.752Z,83.23
2023-02-11T00:36:38.392Z,83.23
2023-02-11T00:37:11.087Z,83.13
2023-02-11T00:37:43.777Z,83.13
2023-02-11T00:38:16.459Z,83.23
2023-02-11T00:38:49.129Z,83.13
2023-02-11T00:39:21.805Z,83.23
2023-02-11T00:39:54.485Z,83.23
2023-02-11T00:40:27.194Z,83.34
2023-02-11T00:40:59.859Z,83.44
2023-02-11T00:41:32.538Z,83.44
2023-02-11T00:42:05.216Z,83.34
2023-02-11T00:42:37.886Z,83.13
2023-02-11T00:43:10.563Z,83.13
2023-02-11T00:43:43.227Z,83.13
2023-02-11T00:44:15.901Z,83.13
2023-02-11T00:44:48.588Z,83.44
2023-02-11T00:45:21.396Z,83.44
2023-02-11T00:45:54.129Z,83.54
2023-02-11T00:46:26.930Z,83.65
2023-02-11T00:46:59.590Z,83.54
2023-02-11T00:47:32.259Z,83.54
2023-02-11T00:48:04.930Z,83.54
2023-02-11T00:48:37.615Z,83.54
2023-02-11T00:49:10.279Z,83.44
2023-02-11T00:49:42.969Z,83.54
2023-02-11T00:50:14.098Z,83.54
2023-02-11T00:50:46.751Z,83.54
2023-02-11T00:51:19.424Z,83.44
2023-02-11T00:51:52.093Z,83.65
2023-02-11T00:52:24.765Z,83.65
2023-02-11T00:52:57.429Z,83.54
2023-02-11T00:53:30.093Z,83.54
2023-02-11T00:54:02.763Z,83.54
2023-02-11T00:54:35.432Z,83.44
2023-02-11T00:55:08.108Z,83.34
2023-02-11T00:55:40.776Z,83.34
2023-02-11T00:56:13.457Z,83.30
2023-02-11T00:56:46.132Z,83.20
2023-02-11T00:57:18.815Z,83.30
2023-02-11T00:57:51.478Z,83.30
2023-02-11T00:58:24.162Z,83.30
2023-02-11T00:58:56.832Z,83.30
2023-02-11T00:59:29.510Z,83.30
2023-02-11T01:00:02.187Z,83.30
2023-02-11T01:00:34.869Z,83.30
2023-02-11T01:01:07.633Z,83.40
2023-02-11T01:01:40.343Z,83.51
2023-02-11T01:02:13.007Z,83.61
2023-02-11T01:02:45.675Z,83.51
2023-02-11T01:03:18.367Z,83.51
2023-02-11T01:03:51.054Z,83.51
2023-02-11T01:04:23.724Z,83.51
2023-02-11T01:04:56.492Z,83.72
2023-02-11T01:05:29.282Z,83.72
2023-02-11T01:06:01.922Z,83.72
2023-02-11T01:06:34.587Z,83.72
2023-02-11T01:07:07.256Z,83.82
2023-02-11T01:07:39.919Z,83.72
2023-02-11T01:08:12.582Z,83.92
2023-02-11T01:08:45.277Z,83.82
2023-02-11T01:09:17.924Z,83.82
2023-02-11T01:09:50.598Z,83.82
2023-02-11T01:10:23.297Z,83.82
2023-02-11T01:10:55.952Z,83.92
2023-02-11T01:11:28.641Z,83.92
2023-02-11T01:12:01.306Z,83.92
2023-02-11T01:12:36.251Z,83.82
2023-02-11T01:13:02.692Z,83.92
2023-02-11T01:13:35.353Z,83.82
2023-02-11T01:14:08.030Z,84.03
2023-02-11T01:14:40.702Z,84.13
2023-02-11T01:15:13.382Z,84.03
2023-02-11T01:15:46.131Z,84.03
2023-02-11T01:16:18.961Z,84.03
2023-02-11T01:16:51.646Z,84.13
2023-02-11T01:17:24.375Z,84.03
2023-02-11T01:17:57.011Z,84.03
2023-02-11T01:18:29.679Z,84.03
2023-02-11T01:19:02.356Z,84.03
2023-02-11T01:19:35.039Z,83.92
2023-02-11T01:20:07.701Z,83.92
2023-02-11T01:20:40.408Z,83.92
2023-02-11T01:21:13.077Z,84.03
2023-02-11T01:21:45.719Z,84.13
2023-02-11T01:22:18.384Z,84.23
2023-02-11T01:22:51.058Z,84.44
2023-02-11T01:23:23.734Z,84.55
2023-02-11T01:23:56.405Z,84.55
2023-02-11T01:24:29.086Z,84.55
2023-02-11T01:25:01.743Z,84.65
2023-02-11T01:25:34.418Z,84.65
2023-02-11T01:26:07.091Z,84.96
2023-02-11T01:26:39.773Z,84.86
2023-02-11T01:27:12.430Z,84.96
2023-02-11T01:27:45.096Z,84.96
2023-02-11T01:28:17.837Z,85.06
2023-02-11T01:28:50.515Z,85.17
2023-02-11T01:29:23.187Z,85.28
2023-02-11T01:29:55.855Z,85.38
2023-02-11T01:30:28.548Z,85.49
2023-02-11T01:31:01.281Z,85.59
2023-02-11T01:31:34.103Z,85.49
2023-02-11T01:32:06.839Z,85.49
2023-02-11T01:32:39.523Z,85.38
2023-02-11T01:33:12.188Z,85.49
2023-02-11T01:33:44.878Z,85.59
2023-02-11T01:34:17.549Z,85.49
2023-02-11T01:34:50.238Z,85.49
2023-02-11T01:35:22.918Z,85.49
2023-02-11T01:35:55.628Z,85.49
2023-02-11T01:36:28.289Z,85.38
2023-02-11T01:37:00.992Z,85.38
2023-02-11T01:37:33.681Z,85.28
2023-02-11T01:38:06.352Z,85.38
2023-02-11T01:38:39.024Z,85.24
2023-02-11T01:39:11.684Z,85.34
2023-02-11T01:39:39.511Z,85.34
2023-02-11T01:40:07.191Z,85.34
2023-02-11T01:40:37.194Z,85.34
2023-02-11T01:41:14.724Z,85.34
2023-02-11T01:41:35.330Z,85.24
2023-02-11T01:42:07.997Z,85.34
2023-02-11T01:42:40.671Z,85.44
2023-02-11T01:43:09.124Z,85.44
2023-02-11T01:43:43.203Z,85.44
2023-02-11T01:44:10.193Z,85.34
2023-02-11T01:44:36.424Z,85.34
2023-02-11T01:45:09.100Z,85.24
2023-02-11T01:45:37.210Z,85.24
2023-02-11T01:46:04.361Z,85.24
2023-02-11T01:46:31.866Z,85.34
2023-02-11T01:47:04.553Z,85.24
2023-02-11T01:47:38.219Z,85.24
2023-02-11T01:48:05.348Z,85.13
2023-02-11T01:48:38.034Z,85.13
2023-02-11T01:49:05.336Z,85.13
2023-02-11T01:49:38.158Z,85.03
2023-02-11T01:50:06.979Z,85.03
2023-02-11T01:50:35.742Z,85.13
2023-02-11T01:51:04.221Z,85.13
2023-02-11T01:51:30.359Z,85.24
2023-02-11T01:52:03.693Z,85.13
2023-02-11T01:52:29.899Z,85.03
2023-02-11T01:53:02.570Z,85.13
2023-02-11T01:53:35.229Z,85.13
2023-02-11T01:54:07.905Z,85.13
2023-02-11T01:54:40.564Z,85.13
2023-02-11T01:55:13.243Z,85.03
2023-02-11T01:55:45.924Z,85.03
2023-02-11T01:56:18.623Z,85.13
2023-02-11T01:56:51.310Z,85.13
2023-02-11T01:57:23.980Z,85.03
2023-02-11T01:57:56.662Z,85.13
2023-02-11T01:58:29.344Z,85.03
2023-02-11T01:59:01.993Z,85.03
2023-02-11T01:59:34.669Z,85.03
2023-02-11T02:00:07.322Z,85.13
2023-02-11T02:00:39.997Z,85.03
2023-02-11T02:01:12.724Z,85.03
2023-02-11T02:01:45.424Z,85.24
2023-02-11T02:02:16.493Z,85.24
2023-02-11T02:02:49.173Z,85.24
2023-02-11T02:03:21.858Z,85.13
2023-02-11T02:03:54.635Z,85.24
2023-02-11T02:04:27.280Z,85.34
2023-02-11T02:04:59.943Z,85.24
2023-02-11T02:05:32.622Z,85.34
2023-02-11T02:06:05.302Z,85.34
2023-02-11T02:06:37.984Z,85.44
2023-02-11T02:07:10.643Z,85.44
2023-02-11T02:07:43.321Z,85.44
2023-02-11T02:08:15.988Z,85.44
2023-02-11T02:08:48.662Z,85.44
2023-02-11T02:09:21.336Z,85.44
2023-02-11T02:09:54.005Z,85.44
2023-02-11T02:10:26.680Z,85.44
2023-02-11T02:10:59.366Z,85.44
2023-02-11T02:11:32.035Z,85.55
2023-02-11T02:12:04.718Z,85.55
2023-02-11T02:12:37.426Z,85.55
2023-02-11T02:13:10.090Z,85.44
2023-02-11T02:13:42.768Z,85.44
2023-02-11T02:14:15.450Z,85.55
2023-02-11T02:14:48.131Z,85.44
2023-02-11T02:15:20.799Z,85.44
2023-02-11T02:15:53.820Z,85.44
2023-02-11T02:16:24.581Z,85.41
2023-02-11T02:16:57.223Z,85.44
2023-02-11T02:17:29.926Z,85.41
2023-02-11T02:18:02.595Z,85.41
2023-02-11T02:18:35.259Z,85.41
2023-02-11T02:19:07.943Z,85.34
2023-02-11T02:19:40.604Z,85.41
2023-02-11T02:20:13.259Z,85.30
2023-02-11T02:20:45.932Z,85.41
2023-02-11T02:21:18.617Z,85.30
2023-02-11T02:21:51.312Z,85.30
2023-02-11T02:22:23.959Z,85.41
2023-02-11T02:22:56.643Z,85.41
2023-02-11T02:23:29.319Z,85.41
2023-02-11T02:24:01.980Z,85.41
2023-02-11T02:24:34.655Z,85.30
2023-02-11T02:25:07.310Z,85.30
2023-02-11T02:25:39.990Z,85.30
2023-02-11T02:26:12.656Z,85.30
2023-02-11T02:26:45.359Z,85.30
2023-02-11T02:27:18.022Z,85.30
2023-02-11T02:27:50.686Z,85.20
2023-02-11T02:28:23.391Z,85.20
2023-02-11T02:28:56.055Z,85.20
2023-02-11T02:29:28.729Z,85.30
2023-02-11T02:30:01.402Z,85.30
2023-02-11T02:30:34.104Z,85.20
2023-02-11T02:31:06.876Z,85.20
2023-02-11T02:31:39.578Z,85.20
2023-02-11T02:32:12.234Z,85.10
2023-02-11T02:32:44.917Z,85.20
2023-02-11T02:33:23.515Z,85.30
2023-02-11T02:33:49.696Z,85.30
2023-02-11T02:34:15.864Z,85.30
2023-02-11T02:34:48.530Z,85.30
2023-02-11T02:35:21.199Z,85.30
2023-02-11T02:35:53.865Z,85.41
2023-02-11T02:36:26.530Z,85.41
2023-02-11T02:36:59.214Z,85.41
2023-02-11T02:37:31.856Z,85.41
2023-02-11T02:38:04.529Z,85.30
2023-02-11T02:38:37.208Z,85.30
2023-02-11T02:39:09.875Z,85.41
2023-02-11T02:39:42.548Z,85.41
2023-02-11T02:40:15.244Z,85.30
2023-02-11T02:40:47.945Z,85.20
2023-02-11T02:41:20.573Z,85.20
2023-02-11T02:41:53.243Z,85.20
2023-02-11T02:42:25.909Z,85.20
2023-02-11T02:42:58.577Z,85.10
2023-02-11T02:43:31.251Z,85.20
2023-02-11T02:44:03.939Z,85.20
2023-02-11T02:44:35.031Z,85.30
2023-02-11T02:45:07.706Z,85.41
2023-02-11T02:45:40.377Z,85.41
2023-02-11T02:46:13.107Z,85.41
2023-02-11T02:46:45.815Z,85.41
2023-02-11T02:47:18.475Z,85.41
2023-02-11T02:47:51.151Z,85.41
2023-02-11T02:48:23.833Z,85.51
2023-02-11T02:48:56.515Z,85.51
2023-02-11T02:49:29.185Z,85.41
2023-02-11T02:50:01.875Z,85.51
2023-02-11T02:50:34.572Z,85.51
2023-02-11T02:51:05.647Z,85.51
2023-02-11T02:51:38.313Z,85.51
2023-02-11T02:52:11.022Z,85.61
2023-02-11T02:52:43.659Z,85.61
2023-02-11T02:53:16.337Z,85.51
2023-02-11T02:53:49.043Z,85.51
2023-02-11T02:54:21.690Z,85.51
2023-02-11T02:54:54.355Z,85.51
2023-02-11T02:55:27.031Z,85.61
2023-02-11T02:55:59.712Z,85.61
2023-02-11T02:56:32.387Z,85.61
2023-02-11T02:57:05.181Z,85.72
2023-02-11T02:57:37.854Z,85.82
2023-02-11T02:58:10.508Z,85.82
2023-02-11T02:58:45.405Z,85.82
2023-02-11T02:59:13.185Z,85.93
2023-02-11T02:59:45.860Z,85.93
2023-02-11T03:00:18.519Z,85.82
2023-02-11T03:00:51.205Z,85.93
2023-02-11T03:01:23.854Z,86.03
2023-02-11T03:01:56.531Z,86.03
2023-02-11T03:02:29.197Z,86.03
2023-02-11T03:03:01.877Z,86.13
2023-02-11T03:03:34.616Z,86.13
2023-02-11T03:04:07.394Z,86.13
2023-02-11T03:04:40.032Z,86.24
2023-02-11T03:05:12.707Z,86.24
2023-02-11T03:05:45.393Z,86.24
2023-02-11T03:06:18.106Z,86.24
2023-02-11T03:06:50.763Z,86.13
2023-02-11T03:07:23.472Z,86.13
2023-02-11T03:07:56.127Z,86.03
2023-02-11T03:08:28.792Z,86.13
2023-02-11T03:09:01.467Z,86.03
2023-02-11T03:09:34.137Z,86.03
2023-02-11T03:10:06.806Z,86.03
2023-02-11T03:10:39.482Z,86.13
2023-02-11T03:11:12.153Z,86.13
2023-02-11T03:11:44.807Z,86.24
2023-02-11T03:12:17.481Z,86.24
2023-02-11T03:12:50.138Z,86.13
2023-02-11T03:13:22.808Z,86.24
2023-02-11T03:13:55.475Z,86.24
2023-02-11T03:14:28.147Z,86.24
2023-02-11T03:15:00.837Z,86.34
2023-02-11T03:15:33.492Z,86.34
2023-02-11T03:16:06.250Z,86.44
2023-02-11T03:16:39.374Z,86.34
2023-02-11T03:17:12.094Z,86.34
2023-02-11T03:17:44.761Z,86.44
2023-02-11T03:18:17.468Z,86.55
2023-02-11T03:18:50.133Z,86.44
2023-02-11T03:19:22.798Z,86.44
2023-02-11T03:19:55.488Z,86.55
2023-02-11T03:20:28.154Z,86.55
2023-02-11T03:21:00.814Z,86.55
2023-02-11T03:21:33.487Z,86.44
2023-02-11T03:22:06.151Z,86.44
2023-02-11T03:22:38.837Z,86.55
2023-02-11T03:23:11.495Z,86.55
2023-02-11T03:23:44.159Z,86.55
2023-02-11T03:24:16.840Z,86.55
2023-02-11T03:24:49.515Z,86.65
2023-02-11T03:25:22.203Z,86.65
2023-02-11T03:25:54.893Z,86.65
2023-02-11T03:26:27.601Z,86.65
2023-02-11T03:27:00.247Z,86.65
2023-02-11T03:27:33.156Z,86.76
2023-02-11T03:28:05.890Z,86.76
2023-02-11T03:28:38.606Z,86.76
2023-02-11T03:29:11.301Z,86.76
2023-02-11T03:29:43.973Z,86.86
2023-02-11T03:30:16.663Z,86.86
2023-02-11T03:30:49.367Z,86.86
2023-02-11T03:31:22.239Z,86.86
2023-02-11T03:31:54.996Z,86.86
2023-02-11T03:32:27.648Z,86.86
2023-02-11T03:33:00.315Z,86.86
2023-02-11T03:33:32.979Z,86.96
2023-02-11T03:34:05.665Z,86.96
2023-02-11T03:34:38.326Z,86.96
2023-02-11T03:35:11.011Z,86.96
2023-02-11T03:35:43.667Z,86.96
2023-02-11T03:36:16.347Z,86.96
2023-02-11T03:36:49.008Z,86.96
2023-02-11T03:37:21.697Z,87.07
2023-02-11T03:37:54.585Z,87.07
2023-02-11T03:38:27.239Z,87.07
2023-02-11T03:38:59.948Z,87.17
2023-02-11T03:39:32.613Z,87.07
2023-02-11T03:40:05.289Z,87.07
2023-02-11T03:40:38.017Z,87.17
2023-02-11T03:41:10.676Z,87.17
2023-02-11T03:41:43.356Z,87.17
2023-02-11T03:42:16.019Z,87.17
2023-02-11T03:42:48.692Z,87.27
2023-02-11T03:43:21.362Z,87.27
2023-02-11T03:43:54.051Z,87.27
2023-02-11T03:44:26.729Z,87.38
2023-02-11T03:44:59.407Z,87.27
2023-02-11T03:45:32.152Z,87.27
2023-02-11T03:46:04.872Z,87.27
2023-02-11T03:46:37.577Z,87.38
2023-02-11T03:47:10.245Z,87.38
2023-02-11T03:47:42.913Z,87.27
2023-02-11T03:48:15.583Z,87.38
2023-02-11T03:48:48.252Z,87.38
2023-02-11T03:49:20.906Z,87.48
2023-02-11T03:49:53.584Z,87.48
2023-02-11T03:50:26.244Z,87.48
2023-02-11T03:50:58.933Z,87.48
2023-02-11T03:51:31.592Z,87.69
2023-02-11T03:52:04.264Z,87.69
2023-02-11T03:52:36.934Z,87.69
2023-02-11T03:53:09.629Z,87.59
2023-02-11T03:53:42.297Z,87.69
2023-02-11T03:54:14.950Z,87.69
2023-02-11T03:54:47.622Z,87.69
2023-02-11T03:55:20.290Z,87.69
2023-02-11T03:55:53.128Z,87.69
2023-02-11T03:56:25.897Z,87.79
2023-02-11T03:56:58.573Z,87.79
2023-02-11T03:57:31.240Z,87.90
2023-02-11T03:58:03.937Z,87.90
2023-02-11T03:58:36.595Z,87.90
2023-02-11T03:59:09.269Z,87.90
2023-02-11T03:59:41.936Z,87.90
2023-02-11T04:00:14.615Z,87.90
2023-02-11T04:00:47.360Z,87.90
2023-02-11T04:01:20.090Z,87.90
2023-02-11T04:01:52.787Z,88.00
2023-02-11T04:02:25.436Z,87.90
2023-02-11T04:02:58.154Z,88.00
2023-02-11T04:03:30.839Z,88.00
2023-02-11T04:04:03.514Z,88.00
2023-02-11T04:04:36.187Z,88.00
2023-02-11T04:05:08.859Z,88.00
2023-02-11T04:05:41.528Z,88.00
2023-02-11T04:06:14.234Z,88.00
2023-02-11T04:06:46.895Z,88.10
2023-02-11T04:07:19.572Z,88.21
2023-02-11T04:07:52.249Z,88.21
2023-02-11T04:08:24.936Z,88.21
2023-02-11T04:08:57.584Z,88.31
2023-02-11T04:09:30.250Z,88.31
2023-02-11T04:10:02.926Z,88.31
2023-02-11T04:10:35.592Z,88.31
2023-02-11T04:11:08.274Z,88.42
2023-02-11T04:11:40.939Z,88.42
2023-02-11T04:12:13.607Z,88.52
2023-02-11T04:12:46.273Z,88.52
2023-02-11T04:13:18.950Z,88.42
2023-02-11T04:13:51.612Z,88.52
2023-02-11T04:14:24.296Z,88.42
2023-02-11T04:14:57.016Z,88.52
2023-02-11T04:15:29.684Z,88.52
2023-02-11T04:16:02.413Z,88.62
2023-02-11T04:16:35.116Z,88.62
2023-02-11T04:17:07.854Z,88.62
2023-02-11T04:17:40.512Z,88.62
2023-02-11T04:18:13.177Z,88.62
2023-02-11T04:18:45.846Z,88.62
2023-02-11T04:19:18.515Z,88.73
2023-02-11T04:19:51.192Z,88.73
2023-02-11T04:20:23.870Z,88.73
2023-02-11T04:20:56.561Z,88.84
2023-02-11T04:21:29.246Z,88.84
2023-02-11T04:22:01.907Z,88.73
2023-02-11T04:22:34.583Z,88.73
2023-02-11T04:23:07.255Z,88.73
2023-02-11T04:23:39.998Z,88.62
2023-02-11T04:24:12.662Z,88.73
2023-02-11T04:24:45.320Z,88.94
2023-02-11T04:25:18.170Z,89.04
2023-02-11T04:25:51.315Z,88.94
2023-02-11T04:26:17.567Z,89.04
2023-02-11T04:26:50.240Z,89.04
2023-02-11T04:27:22.903Z,89.15
2023-02-11T04:27:55.656Z,89.00
2023-02-11T04:28:28.367Z,89.15
2023-02-11T04:29:01.028Z,89.15
2023-02-11T04:29:33.697Z,89.15
2023-02-11T04:30:06.372Z,89.11
2023-02-11T04:30:39.038Z,89.15
2023-02-11T04:31:11.726Z,89.11
2023-02-11T04:31:44.459Z,89.25
2023-02-11T04:32:17.239Z,89.31
2023-02-11T04:32:49.885Z,89.52
2023-02-11T04:33:22.549Z,89.42
2023-02-11T04:33:55.226Z,89.46
2023-02-11T04:34:27.889Z,89.52
2023-02-11T04:35:00.577Z,89.62
2023-02-11T04:35:33.234Z,89.67
2023-02-11T04:36:05.907Z,89.62
2023-02-11T04:36:38.584Z,89.62
2023-02-11T04:37:11.410Z,89.77
2023-02-11T04:37:44.048Z,89.83
2023-02-11T04:38:16.711Z,89.94
2023-02-11T04:38:49.414Z,89.94
2023-02-11T04:39:22.060Z,89.94
2023-02-11T04:39:54.729Z,89.94
2023-02-11T04:40:27.407Z,90.04
2023-02-11T04:41:00.122Z,90.04
2023-02-11T04:41:32.762Z,90.04
2023-02-11T04:42:05.443Z,90.04
2023-02-11T04:42:38.144Z,90.04
2023-02-11T04:43:10.828Z,90.04
2023-02-11T04:43:43.512Z,90.04
2023-02-11T04:44:10.895Z,90.14
2023-02-11T04:44:38.713Z,90.14
2023-02-11T04:45:08.716Z,90.14
2023-02-11T04:45:36.356Z,90.25
2023-02-11T04:46:00.279Z,90.25
2023-02-11T04:46:29.242Z,90.25
2023-02-11T04:47:01.949Z,90.35
2023-02-11T04:47:34.600Z,90.35
2023-02-11T04:48:05.693Z,90.45
2023-02-11T04:48:32.621Z,90.45
2023-02-11T04:49:05.279Z,90.45
2023-02-11T04:49:32.183Z,90.56
2023-02-11T04:50:06.760Z,90.56
2023-02-11T04:50:40.725Z,90.66
2023-02-11T04:51:08.483Z,90.66
2023-02-11T04:51:35.367Z,90.77
2023-02-11T04:52:08.058Z,90.77
2023-02-11T04:52:34.966Z,90.77
2023-02-11T04:53:07.653Z,90.77
2023-02-11T04:53:39.211Z,90.87
2023-02-11T04:54:06.436Z,90.97
2023-02-11T04:54:36.841Z,90.97
2023-02-11T04:55:09.532Z,91.08
2023-02-11T04:55:39.475Z,91.08
2023-02-11T04:56:06.224Z,91.18
2023-02-11T04:56:35.385Z,91.18
2023-02-11T04:57:08.052Z,91.28
2023-02-11T04:57:40.710Z,91.39
2023-02-11T04:58:13.383Z,91.49
2023-02-11T04:58:46.069Z,91.49
2023-02-11T04:59:18.743Z,91.49
2023-02-11T04:59:51.404Z,91.60
2023-02-11T05:00:24.086Z,91.70
2023-02-11T05:00:56.795Z,91.80
2023-02-11T05:01:29.600Z,91.91
2023-02-11T05:02:02.248Z,92.01
2023-02-11T05:02:34.922Z,92.01
2023-02-11T05:03:07.598Z,92.22
2023-02-11T05:03:40.270Z,92.32
2023-02-11T05:04:12.996Z,92.22
2023-02-11T05:04:45.673Z,92.32
2023-02-11T05:05:18.342Z,92.43
2023-02-11T05:05:51.309Z,92.53
2023-02-11T05:06:17.625Z,92.53
2023-02-11T05:06:50.308Z,92.74
2023-02-11T05:07:22.982Z,92.84
2023-02-11T05:07:55.649Z,92.84
2023-02-11T05:08:28.318Z,92.94
2023-02-11T05:09:00.980Z,92.94
2023-02-11T05:09:33.674Z,93.05
2023-02-11T05:10:06.321Z,93.05
2023-02-11T05:10:38.993Z,93.05
2023-02-11T05:11:11.675Z,93.16
2023-02-11T05:11:44.349Z,93.26
2023-02-11T05:12:17.009Z,93.37
2023-02-11T05:12:49.677Z,93.37
2023-02-11T05:13:22.342Z,93.47
2023-02-11T05:13:55.024Z,93.57
2023-02-11T05:14:27.677Z,93.68
2023-02-11T05:15:00.342Z,93.68
2023-02-11T05:15:33.008Z,93.78
2023-02-11T05:16:05.694Z,93.78
2023-02-11T05:16:38.436Z,93.88
2023-02-11T05:17:11.110Z,93.99
2023-02-11T05:17:43.784Z,93.99
2023-02-11T05:18:16.489Z,93.99
2023-02-11T05:18:51.465Z,93.99
2023-02-11T05:19:18.645Z,94.09
2023-02-11T05:19:51.310Z,94.09
2023-02-11T05:20:24.021Z,93.99
2023-02-11T05:20:52.862Z,94.09
2023-02-11T05:21:24.970Z,94.09
2023-02-11T05:22:02.518Z,94.20
2023-02-11T05:22:27.721Z,94.20
2023-02-11T05:22:54.726Z,94.20
2023-02-11T05:23:26.801Z,94.30
2023-02-11T05:23:58.923Z,94.30
2023-02-11T05:24:25.078Z,94.30
2023-02-11T05:24:57.771Z,94.20
2023-02-11T05:25:30.430Z,94.20
2023-02-11T05:25:57.295Z,94.20
2023-02-11T05:26:30.001Z,94.30
2023-02-11T05:26:56.852Z,94.61
2023-02-11T05:27:23.885Z,94.61
2023-02-11T05:27:50.783Z,94.71
2023-02-11T05:28:23.484Z,94.82
2023-02-11T05:28:56.160Z,94.92
2023-02-11T05:29:28.843Z,94.92
2023-02-11T05:30:01.524Z,94.82
2023-02-11T05:30:35.302Z,94.82
2023-02-11T05:31:01.711Z,94.82
2023-02-11T05:31:29.768Z,94.82
2023-02-11T05:32:02.461Z,94.82
2023-02-11T05:32:35.138Z,94.82
2023-02-11T05:33:07.226Z,94.82
2023-02-11T05:33:33.413Z,94.82
2023-02-11T05:34:04.481Z,94.82
2023-02-11T05:34:37.158Z,95.03
2023-02-11T05:35:09.828Z,95.03
2023-02-11T05:35:42.525Z,94.92
2023-02-11T05:36:15.208Z,94.92
2023-02-11T05:36:47.883Z,94.92
2023-02-11T05:37:20.593Z,94.92
2023-02-11T05:37:53.309Z,94.92
2023-02-11T05:38:25.975Z,94.92
2023-02-11T05:38:58.650Z,94.82
2023-02-11T05:39:31.316Z,94.82
2023-02-11T05:40:04.015Z,94.92
2023-02-11T05:40:36.668Z,94.82
2023-02-11T05:41:07.743Z,94.82
2023-02-11T05:41:40.446Z,94.82
2023-02-11T05:42:13.105Z,94.82
2023-02-11T05:42:45.779Z,94.82
2023-02-11T05:43:18.450Z,94.82
2023-02-11T05:43:51.109Z,94.92
2023-02-11T05:44:23.786Z,94.82
2023-02-11T05:44:56.454Z,94.82
2023-02-11T05:45:29.130Z,94.82
2023-02-11T05:46:01.853Z,94.82
2023-02-11T05:46:34.587Z,94.82
2023-02-11T05:47:07.248Z,94.82
2023-02-11T05:47:39.926Z,94.82
2023-02-11T05:48:12.601Z,94.92
2023-02-11T05:48:45.281Z,94.92
2023-02-11T05:49:16.360Z,94.92
2023-02-11T05:49:49.037Z,94.92
2023-02-11T05:50:21.701Z,94.92
2023-02-11T05:50:54.368Z,95.13
2023-02-11T05:51:27.076Z,95.13
2023-02-11T05:51:59.756Z,95.23
2023-02-11T05:52:32.434Z,95.23
2023-02-11T05:53:05.389Z,95.23
2023-02-11T05:53:38.176Z,95.34
2023-02-11T05:54:10.852Z,95.34
2023-02-11T05:54:43.511Z,95.34
2023-02-11T05:55:16.213Z,95.34
2023-02-11T05:55:49.236Z,95.44
2023-02-11T05:56:16.351Z,95.44
2023-02-11T05:58:06.674Z,95.54
2023-02-11T05:58:39.558Z,95.65
2023-02-11T05:59:12.552Z,95.65
2023-02-11T05:59:39.694Z,95.75
2023-02-11T06:00:06.652Z,95.65
2023-02-11T06:00:39.350Z,95.54
2023-02-11T06:01:07.043Z,95.65
2023-02-11T06:01:36.363Z,95.65
2023-02-11T06:02:12.118Z,95.65
2023-02-11T06:02:39.103Z,95.65
2023-02-11T06:03:05.997Z,95.65
2023-02-11T06:03:32.805Z,95.65
2023-02-11T06:04:05.467Z,95.75
2023-02-11T06:04:38.151Z,95.75
2023-02-11T06:05:10.818Z,95.75
2023-02-11T06:05:44.054Z,95.86
2023-02-11T06:06:10.242Z,95.86
2023-02-11T06:06:42.914Z,95.86
2023-02-11T06:07:16.067Z,95.75
2023-02-11T06:07:42.240Z,95.75
2023-02-11T06:08:14.920Z,95.75
2023-02-11T06:08:42.146Z,95.75
2023-02-11T06:09:14.832Z,95.86
2023-02-11T06:09:47.494Z,95.86
2023-02-11T06:10:20.186Z,95.86
2023-02-11T06:10:52.829Z,95.86
2023-02-11T06:11:25.500Z,95.86
2023-02-11T06:11:58.203Z,95.96
2023-02-11T06:12:30.860Z,95.96
2023-02-11T06:13:03.526Z,96.17
2023-02-11T06:13:36.232Z,96.17
2023-02-11T06:14:08.876Z,96.27
2023-02-11T06:14:41.560Z,96.37
2023-02-11T06:15:14.282Z,96.37
2023-02-11T06:15:47.028Z,96.48
2023-02-11T06:16:19.777Z,96.58
2023-02-11T06:16:52.469Z,96.58
2023-02-11T06:17:25.173Z,96.54
2023-02-11T06:17:57.809Z,96.44
2023-02-11T06:18:30.478Z,96.48
2023-02-11T06:19:03.145Z,96.48
2023-02-11T06:19:35.824Z,96.44
2023-02-11T06:20:08.473Z,96.44
2023-02-11T06:20:41.137Z,96.48
2023-02-11T06:21:13.810Z,96.44
2023-02-11T06:21:46.468Z,96.44
2023-02-11T06:22:19.156Z,96.54
2023-02-11T06:22:51.817Z,96.75
2023-02-11T06:23:24.520Z,96.75
2023-02-11T06:23:57.150Z,96.85
2023-02-11T06:24:51.353Z,96.85
2023-02-11T06:25:02.456Z,96.95
2023-02-11T06:25:28.715Z,97.06
2023-02-11T06:26:01.356Z,97.06
2023-02-11T06:26:34.037Z,97.06
2023-02-11T06:27:06.707Z,97.16
2023-02-11T06:27:39.405Z,97.27
2023-02-11T06:28:12.188Z,97.27
2023-02-11T06:28:44.955Z,97.27
2023-02-11T06:29:17.689Z,97.27
2023-02-11T06:29:50.392Z,97.27
2023-02-11T06:30:23.068Z,97.27
2023-02-11T06:30:55.773Z,97.47
2023-02-11T06:31:28.548Z,97.68
2023-02-11T06:32:01.351Z,97.78
2023-02-11T06:32:46.141Z,97.78
2023-02-11T06:33:06.117Z,97.89
2023-02-11T06:33:32.281Z,97.99
2023-02-11T06:34:04.953Z,97.99
2023-02-11T06:34:37.621Z,97.89
2023-02-11T06:35:12.081Z,97.89
2023-02-11T06:35:38.602Z,97.89
2023-02-11T06:36:11.265Z,97.89
2023-02-11T06:36:43.940Z,97.89
2023-02-11T06:37:16.610Z,97.89
2023-02-11T06:37:49.317Z,97.89
2023-02-11T06:38:21.982Z,98.10
2023-02-11T06:38:54.651Z,98.10
2023-02-11T06:39:27.321Z,98.20
2023-02-11T06:39:59.989Z,98.20
2023-02-11T06:40:32.695Z,98.30
2023-02-11T06:41:05.329Z,98.30
2023-02-11T06:41:37.995Z,98.30
2023-02-11T06:42:10.735Z,98.20
2023-02-11T06:42:43.374Z,98.20
2023-02-11T06:43:16.028Z,98.20
2023-02-11T06:43:48.736Z,98.20
2023-02-11T06:44:21.382Z,98.20
2023-02-11T06:44:54.057Z,98.20
2023-02-11T06:45:26.711Z,98.30
2023-02-11T06:45:59.397Z,98.41
2023-02-11T06:46:32.212Z,98.41
2023-02-11T06:47:04.876Z,98.41
2023-02-11T06:47:37.588Z,98.51
2023-02-11T06:48:10.234Z,98.61
2023-02-11T06:48:44.859Z,98.72
2023-02-11T06:49:11.200Z,98.72
2023-02-11T06:49:43.879Z,98.72
2023-02-11T06:50:16.572Z,98.61
2023-02-11T06:50:49.233Z,98.61
2023-02-11T06:51:21.937Z,98.61
2023-02-11T06:51:54.600Z,98.61
2023-02-11T06:52:27.302Z,98.72
2023-02-11T06:52:59.978Z,98.68
2023-02-11T06:53:32.648Z,98.72
2023-02-11T06:54:05.332Z,98.68
2023-02-11T06:54:38.012Z,98.61
2023-02-11T06:55:10.678Z,98.61
2023-02-11T06:55:43.378Z,98.57
2023-02-11T06:56:16.020Z,98.68